BAW926 HEAX-LGAV
Flight info
| Callsign | BAW926 |
|---|---|
| Flight time | N/A |
| Altitude | 30000 |
| Route | NOZ1B NOZ L551 ANTAR UN133 KPC UN137 RIPLI UL995 VARIX |
| Aircraft | A320/M-SDE3FGHIRWY/LB1 |
Departure
| Time | 2026-05-07 12:23 |
|---|---|
| Airport | Alexandria International Airport (HEAX) |
Arrival
| Time | N/A |
|---|---|
| Airport | Athens Eleftherios Venizelos International Airport (LGAV) |
| Time | Latitude | Longitude | Altitude | Speed | Heading |
|---|---|---|---|---|---|
| 2026-05-07 12:07 | 30.93102 | 29.69593 | 177 ft | 0 kts | 81° |
| 2026-05-07 12:17 | 30.93102 | 29.69594 | 179 ft | 1 kts | 81° |
| 2026-05-07 12:17 | 30.93099 | 29.69603 | 178 ft | 3 kts | 108° |
| 2026-05-07 12:18 | 30.93057 | 29.69620 | 176 ft | 9 kts | 179° |
| 2026-05-07 12:18 | 30.92981 | 29.69621 | 175 ft | 12 kts | 179° |
| 2026-05-07 12:18 | 30.92889 | 29.69609 | 174 ft | 14 kts | 207° |
| 2026-05-07 12:18 | 30.92819 | 29.69519 | 174 ft | 16 kts | 232° |
| 2026-05-07 12:19 | 30.92749 | 29.69413 | 174 ft | 18 kts | 233° |
| 2026-05-07 12:19 | 30.92675 | 29.69290 | 174 ft | 19 kts | 233° |
| 2026-05-07 12:19 | 30.92591 | 29.69168 | 174 ft | 20 kts | 233° |
| 2026-05-07 12:19 | 30.92499 | 29.69036 | 174 ft | 20 kts | 208° |
| 2026-05-07 12:20 | 30.92378 | 29.69092 | 172 ft | 20 kts | 143° |
| 2026-05-07 12:20 | 30.92258 | 29.69201 | 169 ft | 23 kts | 143° |
| 2026-05-07 12:20 | 30.92121 | 29.69320 | 166 ft | 26 kts | 143° |
| 2026-05-07 12:20 | 30.91968 | 29.69455 | 163 ft | 29 kts | 142° |
| 2026-05-07 12:21 | 30.91859 | 29.69554 | 161 ft | 31 kts | 142° |
| 2026-05-07 12:21 | 30.91680 | 29.69715 | 157 ft | 34 kts | 142° |
| 2026-05-07 12:21 | 30.91420 | 29.69945 | 152 ft | 37 kts | 142° |
| 2026-05-07 12:21 | 30.91202 | 29.70125 | 146 ft | 40 kts | 147° |
| 2026-05-07 12:22 | 30.91049 | 29.70214 | 144 ft | 37 kts | 162° |
| 2026-05-07 12:22 | 30.90814 | 29.70255 | 140 ft | 21 kts | 180° |
| 2026-05-07 12:22 | 30.90803 | 29.70167 | 139 ft | 15 kts | 318° |
| 2026-05-07 12:22 | 30.90975 | 29.70014 | 144 ft | 62 kts | 323° |
| 2026-05-07 12:23 | 30.91477 | 29.69577 | 154 ft | 116 kts | 323° |
| 2026-05-07 12:23 | 30.92244 | 29.68921 | 205 ft | 154 kts | 327° |
| 2026-05-07 12:23 | 30.93111 | 29.68171 | 791 ft | 151 kts | 326° |
| 2026-05-07 12:23 | 30.94026 | 29.67616 | 1424 ft | 150 kts | 348° |
| 2026-05-07 12:24 | 30.95097 | 29.67286 | 1801 ft | 170 kts | 344° |
| 2026-05-07 12:24 | 30.96293 | 29.66828 | 2068 ft | 194 kts | 346° |
| 2026-05-07 12:24 | 30.97690 | 29.66888 | 2438 ft | 216 kts | 27° |
| 2026-05-07 12:24 | 30.98818 | 29.68136 | 2918 ft | 240 kts | 59° |
| 2026-05-07 12:25 | 30.99543 | 29.69961 | 3694 ft | 253 kts | 69° |
| 2026-05-07 12:25 | 31.00121 | 29.71911 | 4638 ft | 257 kts | 70° |
| 2026-05-07 12:25 | 31.00694 | 29.73908 | 5546 ft | 262 kts | 69° |
| 2026-05-07 12:25 | 31.01304 | 29.75934 | 5979 ft | 267 kts | 68° |
| 2026-05-07 12:26 | 31.01959 | 29.77973 | 6104 ft | 269 kts | 67° |
| 2026-05-07 12:26 | 31.02691 | 29.79945 | 6126 ft | 267 kts | 57° |
| 2026-05-07 12:26 | 31.03894 | 29.81562 | 6133 ft | 265 kts | 37° |
| 2026-05-07 12:26 | 31.05346 | 29.82890 | 6135 ft | 265 kts | 37° |
| 2026-05-07 12:27 | 31.06803 | 29.84215 | 6137 ft | 265 kts | 37° |
| 2026-05-07 12:27 | 31.08256 | 29.85533 | 6131 ft | 265 kts | 37° |
| 2026-05-07 12:27 | 31.09712 | 29.86855 | 6137 ft | 265 kts | 37° |
| 2026-05-07 12:27 | 31.11159 | 29.88175 | 6103 ft | 264 kts | 37° |
| 2026-05-07 12:28 | 31.12604 | 29.89495 | 6111 ft | 264 kts | 37° |
| 2026-05-07 12:28 | 31.14051 | 29.90810 | 6107 ft | 263 kts | 37° |
| 2026-05-07 12:28 | 31.15497 | 29.92127 | 6112 ft | 263 kts | 37° |
| 2026-05-07 12:28 | 31.16993 | 29.93353 | 6110 ft | 264 kts | 26° |
| 2026-05-07 12:29 | 31.18731 | 29.93960 | 6110 ft | 263 kts | 6° |
| 2026-05-07 12:29 | 31.20569 | 29.93768 | 6446 ft | 271 kts | 343° |
| 2026-05-07 12:29 | 31.22286 | 29.92855 | 7376 ft | 272 kts | 333° |
| 2026-05-07 12:29 | 31.23959 | 29.91822 | 8217 ft | 273 kts | 333° |
| 2026-05-07 12:30 | 31.25649 | 29.90774 | 9028 ft | 276 kts | 333° |
| 2026-05-07 12:30 | 31.27350 | 29.89716 | 9823 ft | 279 kts | 333° |
| 2026-05-07 12:30 | 31.29075 | 29.88637 | 10459 ft | 287 kts | 332° |
| 2026-05-07 12:30 | 31.30898 | 29.87492 | 10673 ft | 309 kts | 332° |
| 2026-05-07 12:31 | 31.32845 | 29.86274 | 11015 ft | 323 kts | 332° |
| 2026-05-07 12:31 | 31.34855 | 29.85022 | 11608 ft | 329 kts | 332° |
| 2026-05-07 12:31 | 31.36887 | 29.83747 | 12314 ft | 332 kts | 332° |
| 2026-05-07 12:31 | 31.38919 | 29.82448 | 13075 ft | 335 kts | 332° |
| 2026-05-07 12:32 | 31.40954 | 29.81165 | 13672 ft | 339 kts | 332° |
| 2026-05-07 12:32 | 31.43046 | 29.79864 | 14273 ft | 342 kts | 332° |
| 2026-05-07 12:32 | 31.45152 | 29.78555 | 14864 ft | 344 kts | 332° |
| 2026-05-07 12:32 | 31.47272 | 29.77231 | 15439 ft | 346 kts | 332° |
| 2026-05-07 12:33 | 31.51553 | 29.74556 | 16597 ft | 351 kts | 332° |
| 2026-05-07 12:33 | 31.53712 | 29.73195 | 17177 ft | 353 kts | 332° |
| 2026-05-07 12:33 | 31.55882 | 29.71832 | 17737 ft | 356 kts | 332° |
| 2026-05-07 12:34 | 31.58073 | 29.70461 | 18323 ft | 358 kts | 332° |
| 2026-05-07 12:34 | 31.60273 | 29.69079 | 18839 ft | 360 kts | 332° |
| 2026-05-07 12:34 | 31.62499 | 29.67677 | 19344 ft | 363 kts | 332° |
| 2026-05-07 12:34 | 31.64730 | 29.66269 | 19843 ft | 366 kts | 332° |
| 2026-05-07 12:35 | 31.66980 | 29.64848 | 20338 ft | 369 kts | 331° |
| 2026-05-07 12:35 | 31.69255 | 29.63410 | 20811 ft | 372 kts | 331° |
| 2026-05-07 12:35 | 31.71545 | 29.61964 | 21296 ft | 374 kts | 331° |
| 2026-05-07 12:35 | 31.73844 | 29.60512 | 21760 ft | 377 kts | 331° |
| 2026-05-07 12:36 | 31.76155 | 29.59051 | 22204 ft | 379 kts | 331° |
| 2026-05-07 12:36 | 31.78493 | 29.57575 | 22663 ft | 382 kts | 331° |
| 2026-05-07 12:36 | 31.80833 | 29.56098 | 23112 ft | 385 kts | 330° |
| 2026-05-07 12:36 | 31.83209 | 29.54593 | 23559 ft | 387 kts | 330° |
| 2026-05-07 12:37 | 31.85593 | 29.53080 | 23959 ft | 390 kts | 330° |
| 2026-05-07 12:37 | 31.87978 | 29.51566 | 24341 ft | 391 kts | 330° |
| 2026-05-07 12:37 | 31.90376 | 29.50044 | 24732 ft | 393 kts | 330° |
| 2026-05-07 12:37 | 31.92791 | 29.48513 | 25131 ft | 394 kts | 330° |
| 2026-05-07 12:38 | 31.95180 | 29.46995 | 25512 ft | 396 kts | 330° |
| 2026-05-07 12:38 | 31.97608 | 29.45450 | 25910 ft | 397 kts | 330° |
| 2026-05-07 12:38 | 32.00039 | 29.43902 | 26297 ft | 399 kts | 330° |
| 2026-05-07 12:38 | 32.02486 | 29.42345 | 26678 ft | 400 kts | 330° |
| 2026-05-07 12:39 | 32.04941 | 29.40785 | 27050 ft | 401 kts | 330° |
| 2026-05-07 12:39 | 32.07398 | 29.39222 | 27429 ft | 403 kts | 330° |
| 2026-05-07 12:39 | 32.09870 | 29.37644 | 27796 ft | 404 kts | 330° |
| 2026-05-07 12:39 | 32.12353 | 29.36058 | 28162 ft | 406 kts | 330° |
| 2026-05-07 12:40 | 32.14846 | 29.34470 | 28527 ft | 408 kts | 330° |
| 2026-05-07 12:40 | 32.17352 | 29.32869 | 28897 ft | 410 kts | 330° |
| 2026-05-07 12:40 | 32.19865 | 29.31261 | 29256 ft | 411 kts | 330° |
| 2026-05-07 12:40 | 32.22391 | 29.29645 | 29624 ft | 413 kts | 330° |
| 2026-05-07 12:41 | 32.24919 | 29.28026 | 29995 ft | 415 kts | 330° |
| 2026-05-07 12:41 | 32.27452 | 29.26404 | 30338 ft | 416 kts | 330° |
| 2026-05-07 12:41 | 32.29996 | 29.24775 | 30801 ft | 412 kts | 330° |
| 2026-05-07 12:41 | 32.32506 | 29.23167 | 31366 ft | 407 kts | 331° |
| 2026-05-07 12:42 | 32.34970 | 29.21587 | 31980 ft | 400 kts | 331° |
| 2026-05-07 12:42 | 32.37399 | 29.20028 | 32628 ft | 393 kts | 331° |
| 2026-05-07 12:42 | 32.39785 | 29.18495 | 33292 ft | 386 kts | 332° |
| 2026-05-07 12:42 | 32.42085 | 29.17014 | 33951 ft | 379 kts | 332° |
| 2026-05-07 12:43 | 32.44392 | 29.15529 | 34539 ft | 373 kts | 332° |
| 2026-05-07 12:43 | 32.46659 | 29.14069 | 35007 ft | 369 kts | 332° |
| 2026-05-07 12:43 | 32.48898 | 29.12627 | 35392 ft | 366 kts | 331° |
| 2026-05-07 12:43 | 32.51126 | 29.11189 | 35745 ft | 364 kts | 331° |
| 2026-05-07 12:44 | 32.53351 | 29.09754 | 36071 ft | 363 kts | 331° |
| 2026-05-07 12:44 | 32.55570 | 29.08324 | 36155 ft | 364 kts | 331° |
| 2026-05-07 12:44 | 32.60024 | 29.05446 | 36161 ft | 365 kts | 331° |
| 2026-05-07 12:45 | 32.64485 | 29.02571 | 36162 ft | 365 kts | 331° |
| 2026-05-07 12:45 | 32.68937 | 28.99686 | 36163 ft | 365 kts | 331° |
| 2026-05-07 12:46 | 32.73385 | 28.96801 | 36163 ft | 364 kts | 331° |
| 2026-05-07 12:46 | 32.77839 | 28.93907 | 36167 ft | 365 kts | 331° |
| 2026-05-07 12:47 | 32.82287 | 28.91016 | 36171 ft | 365 kts | 330° |
| 2026-05-07 12:47 | 32.86743 | 28.88109 | 36175 ft | 365 kts | 330° |
| 2026-05-07 12:48 | 32.91199 | 28.85208 | 36181 ft | 365 kts | 330° |
| 2026-05-07 12:48 | 32.95647 | 28.82308 | 36183 ft | 365 kts | 330° |
| 2026-05-07 12:49 | 33.00098 | 28.79406 | 36184 ft | 364 kts | 330° |
| 2026-05-07 12:49 | 33.04539 | 28.76502 | 36187 ft | 364 kts | 330° |
| 2026-05-07 12:50 | 33.08982 | 28.73596 | 36188 ft | 364 kts | 330° |
| 2026-05-07 12:50 | 33.13431 | 28.70681 | 36188 ft | 364 kts | 330° |
| 2026-05-07 12:51 | 33.17839 | 28.67795 | 36188 ft | 364 kts | 330° |
| 2026-05-07 12:51 | 33.22276 | 28.64880 | 36187 ft | 364 kts | 330° |
| 2026-05-07 12:52 | 33.26706 | 28.61968 | 36188 ft | 364 kts | 330° |
| 2026-05-07 12:52 | 33.31149 | 28.59053 | 36189 ft | 364 kts | 330° |
| 2026-05-07 12:53 | 33.35576 | 28.56130 | 36189 ft | 364 kts | 330° |
| 2026-05-07 12:53 | 33.40014 | 28.53198 | 36186 ft | 364 kts | 329° |
| 2026-05-07 12:54 | 33.44442 | 28.50271 | 36187 ft | 364 kts | 329° |
| 2026-05-07 12:54 | 33.48850 | 28.47360 | 36186 ft | 364 kts | 329° |
| 2026-05-07 12:55 | 33.53296 | 28.44427 | 36187 ft | 364 kts | 329° |
| 2026-05-07 12:55 | 33.57733 | 28.41490 | 36184 ft | 364 kts | 329° |
| 2026-05-07 12:56 | 33.62162 | 28.38547 | 36187 ft | 364 kts | 329° |
| 2026-05-07 12:56 | 33.66605 | 28.35594 | 36187 ft | 364 kts | 329° |
| 2026-05-07 12:57 | 33.71038 | 28.32642 | 36186 ft | 365 kts | 329° |
| 2026-05-07 12:57 | 33.75475 | 28.29690 | 36184 ft | 365 kts | 329° |
| 2026-05-07 12:58 | 33.79918 | 28.26731 | 36187 ft | 365 kts | 329° |
| 2026-05-07 12:58 | 33.84330 | 28.23771 | 36183 ft | 365 kts | 328° |
| 2026-05-07 12:59 | 33.88791 | 28.20752 | 36181 ft | 365 kts | 328° |
| 2026-05-07 12:59 | 33.93223 | 28.17747 | 36181 ft | 366 kts | 328° |
| 2026-05-07 13:00 | 33.97664 | 28.14741 | 36180 ft | 366 kts | 328° |
| 2026-05-07 13:00 | 34.02076 | 28.11752 | 36181 ft | 366 kts | 328° |
| 2026-05-07 13:01 | 34.06520 | 28.08747 | 36183 ft | 367 kts | 328° |
| 2026-05-07 13:01 | 34.10996 | 28.05708 | 36183 ft | 367 kts | 328° |
| 2026-05-07 13:02 | 34.15446 | 28.02676 | 36180 ft | 367 kts | 328° |
| 2026-05-07 13:02 | 34.19873 | 27.99666 | 36182 ft | 367 kts | 328° |